Time;durP1;ratioP1;P1;durP2;ratioP2;P2;SDS_P1;SDS_P2;PMS_P1;PMS_P2;Temp;Humidity;BMP_temperature;BMP_pressure;BME280_temperature;BME280_humidity;BME280_pressure;Samples;Min_cycle;Max_cycle;Signal;HPM_P1;HPM_P2
2021/11/15 00:00:16;;;;;;;6.03;5.75;;;;;;;6.84;95.25;102126.66;4370325;32;20594;-67
2021/11/15 00:02:42;;;;;;;5.20;5.00;;;;;;;6.93;96.99;102143.03;4384594;32;20073;-68
2021/11/15 00:05:08;;;;;;;4.22;4.03;;;;;;;6.91;97.16;102144.78;4386485;32;20073;-70
2021/11/15 00:07:33;;;;;;;4.22;4.03;;;;;;;6.83;97.85;102140.56;4398488;32;20083;-68
2021/11/15 00:09:59;;;;;;;4.07;3.87;;;;;;;6.84;97.78;102147.53;4387720;32;20073;-68
2021/11/15 00:12:24;;;;;;;4.12;3.92;;;;;;;6.81;98.24;102144.94;4386099;32;20162;-68
2021/11/15 00:14:49;;;;;;;4.22;4.03;;;;;;;6.77;98.83;102152.81;4385456;32;20250;-68
2021/11/15 00:17:15;;;;;;;3.83;3.72;;;;;;;6.77;99.62;102159.78;4363601;32;20583;-68
2021/11/15 00:19:40;;;;;;;5.35;5.15;;;;;;;6.76;99.65;102153.69;4381716;32;20077;-68
2021/11/15 00:22:06;;;;;;;4.10;3.90;;;;;;;6.76;99.35;102156.31;4397160;32;20072;-68
2021/11/15 00:24:31;;;;;;;3.78;3.65;;;;;;;6.78;99.21;102179.78;4380099;32;20441;-69
2021/11/15 00:26:57;;;;;;;3.70;3.60;;;;;;;6.81;99.71;102153.62;4383806;32;20088;-68
2021/11/15 00:29:22;;;;;;;3.72;3.58;;;;;;;6.39;99.35;102083.75;4383462;32;20084;-68
2021/11/15 00:31:47;;;;;;;4.87;4.68;;;;;;;6.86;98.44;102154.44;4378456;32;20095;-68
2021/11/15 00:34:13;;;;;;;4.03;3.83;;;;;;;6.85;99.52;102159.69;4370309;32;20493;-68
2021/11/15 00:36:38;;;;;;;5.15;4.95;;;;;;;6.89;99.22;102161.38;4378936;32;20092;-68
2021/11/15 00:39:04;;;;;;;4.15;3.95;;;;;;;6.73;99.21;102140.69;4385086;32;20680;-68
2021/11/15 00:41:29;;;;;;;3.78;3.58;;;;;;;6.87;98.11;102152.69;4382539;32;20184;-69
2021/11/15 00:43:55;;;;;;;4.12;3.92;;;;;;;6.88;98.19;102150.06;4388387;32;20069;-68
2021/11/15 00:46:21;;;;;;;3.67;3.58;;;;;;;6.91;98.05;102155.22;4380825;32;20097;-68
2021/11/15 00:48:46;;;;;;;3.95;3.75;;;;;;;6.90;97.10;102143.09;4389152;32;20103;-68
2021/11/15 00:51:12;;;;;;;3.70;3.60;;;;;;;6.90;98.20;102143.09;4386741;32;20068;-69
2021/11/15 00:53:37;;;;;;;3.60;3.50;;;;;;;6.88;97.81;102151.81;4386980;32;20080;-68
2021/11/15 00:56:03;;;;;;;3.60;3.50;;;;;;;6.87;98.35;102158.78;4384819;32;20096;-68
2021/11/15 00:58:28;;;;;;;3.45;3.35;;;;;;;6.87;98.10;102152.69;4387883;32;20151;-69
2021/11/15 01:00:54;;;;;;;4.20;4.00;;;;;;;6.88;98.41;102154.44;4386946;32;20065;-68
2021/11/15 01:03:19;;;;;;;3.37;3.28;;;;;;;6.85;98.51;102149.25;4388315;32;20141;-69
2021/11/15 01:05:48;;;;;;;3.70;3.60;;;;;;;6.86;99.16;102153.59;4376461;32;20235;-69
2021/11/15 01:08:14;;;;;;;3.53;3.42;;;;;;;6.66;99.60;102115.56;4380740;32;20075;-68
2021/11/15 01:10:40;;;;;;;5.22;5.03;;;;;;;6.85;99.90;102138.81;4383930;32;20087;-68
2021/11/15 01:13:05;;;;;;;4.72;4.43;;;;;;;6.85;99.76;102136.19;4383307;32;20076;-69
2021/11/15 01:15:31;;;;;;;3.75;3.62;;;;;;;6.88;99.01;102131.81;4383448;32;20944;-69
2021/11/15 01:17:57;;;;;;;3.80;3.70;;;;;;;6.91;98.80;102136.13;4399946;32;20061;-69
2021/11/15 01:20:24;;;;;;;3.70;3.50;;;;;;;6.91;98.85;102128.28;4381675;32;20080;-69
2021/11/15 01:22:50;;;;;;;5.78;5.47;;;;;;;6.91;97.77;102128.28;4366947;32;20085;-69
2021/11/15 01:25:15;;;;;;;3.67;3.58;;;;;;;6.88;98.89;102125.72;4382383;32;20077;-69
2021/11/15 01:27:41;;;;;;;4.87;4.68;;;;;;;6.87;98.53;102117.00;4381797;32;20446;-68
2021/11/15 01:30:08;;;;;;;3.95;3.75;;;;;;;6.87;98.84;102108.34;4381523;32;20089;-68
2021/11/15 01:32:33;;;;;;;4.53;4.32;;;;;;;6.89;97.50;102109.16;4377831;32;20356;-69
2021/11/15 01:34:59;;;;;;;3.67;3.58;;;;;;;6.92;97.48;102114.38;4378145;32;20080;-68
2021/11/15 01:37:24;;;;;;;3.90;3.70;;;;;;;6.93;98.29;102119.53;4396006;32;20123;-69
2021/11/15 01:39:50;;;;;;;4.28;4.07;;;;;;;6.92;98.10;102109.16;4379684;32;20566;-69
2021/11/15 01:42:15;;;;;;;3.95;3.72;;;;;;;6.89;98.38;102115.25;4380242;32;20073;-68
2021/11/15 01:44:40;;;;;;;5.85;4.82;;;;;;;6.88;98.48;102113.53;4363311;32;20476;-68
2021/11/15 01:47:06;;;;;;;4.00;3.80;;;;;;;6.88;98.71;102112.69;4382836;32;20068;-68
2021/11/15 01:49:31;;;;;;;3.72;3.62;;;;;;;6.70;98.34;102082.50;4367595;32;20072;-69
2021/11/15 01:51:57;;;;;;;3.75;3.65;;;;;;;6.87;98.36;102110.94;4378509;32;20607;-68
2021/11/15 01:54:22;;;;;;;4.30;4.10;;;;;;;6.87;97.71;102111.78;4364845;32;20069;-69
2021/11/15 01:56:51;;;;;;;4.90;4.70;;;;;;;6.81;98.23;102106.66;4386367;32;20606;-69
2021/11/15 01:59:17;;;;;;;3.60;3.50;;;;;;;6.88;97.98;102118.75;4365659;32;20133;-69
2021/11/15 02:01:42;;;;;;;5.55;5.25;;;;;;;6.88;97.79;102116.16;4386524;32;20064;-69
2021/11/15 02:04:08;;;;;;;4.00;3.80;;;;;;;6.88;97.95;102118.75;4366529;32;20069;-68
2021/11/15 02:06:33;;;;;;;3.97;3.80;;;;;;;6.81;98.21;102111.03;4375532;32;20072;-69
2021/11/15 02:08:59;;;;;;;3.85;3.67;;;;;;;6.85;99.26;102110.09;4378672;32;20087;-68
2021/11/15 02:11:24;;;;;;;4.47;4.25;;;;;;;6.84;98.52;102109.25;4371217;32;20068;-69
2021/11/15 02:13:49;;;;;;;4.70;4.50;;;;;;;6.85;99.13;102110.97;4380557;32;20372;-69
2021/11/15 02:16:15;;;;;;;3.60;3.50;;;;;;;6.85;99.61;102112.72;4370109;32;20680;-69
2021/11/15 02:18:40;;;;;;;5.18;4.97;;;;;;;6.84;99.55;102111.84;4361443;32;20142;-68
2021/11/15 02:21:06;;;;;;;3.78;3.67;;;;;;;6.86;98.53;102109.22;4381150;32;20089;-69
2021/11/15 02:23:34;;;;;;;3.55;3.45;;;;;;;6.86;98.91;102127.50;4376971;32;20086;-69
2021/11/15 02:25:59;;;;;;;3.90;3.75;;;;;;;6.77;99.30;102089.31;4374873;32;20142;-68
2021/11/15 02:28:30;;;;;;;3.70;3.55;;;;;;;6.76;98.95;102111.97;4385398;32;20449;-69
2021/11/15 02:30:56;;;;;;;3.80;3.70;;;;;;;6.85;98.64;102108.34;4392884;32;20075;-68
2021/11/15 02:33:21;;;;;;;3.95;3.78;;;;;;;6.87;99.50;102110.94;4375738;32;20199;-69
2021/11/15 02:35:47;;;;;;;6.15;5.85;;;;;;;6.87;98.98;102100.50;4381359;32;20076;-69
2021/11/15 02:38:12;;;;;;;4.40;4.10;;;;;;;6.92;96.46;102106.53;4378878;32;20138;-68
2021/11/15 02:40:38;;;;;;;3.65;3.55;;;;;;;6.97;95.65;102108.16;4386775;32;20152;-69
2021/11/15 02:43:03;;;;;;;3.60;3.50;;;;;;;7.02;94.49;102105.50;4379264;32;20296;-69
2021/11/15 02:45:30;;;;;;;4.40;4.20;;;;;;;7.06;94.38;102109.81;4388556;32;20160;-67
2021/11/15 02:47:56;;;;;;;3.70;3.58;;;;;;;7.05;94.21;102101.97;4381063;32;20179;-68
2021/11/15 02:50:23;;;;;;;3.60;3.50;;;;;;;7.09;92.92;102109.75;4357554;32;20092;-67
2021/11/15 02:52:51;;;;;;;4.75;4.55;;;;;;;7.10;93.33;102100.19;4382407;32;20790;-67
2021/11/15 02:55:16;;;;;;;3.60;3.50;;;;;;;7.09;92.88;102107.13;4362500;32;20100;-68
2021/11/15 02:57:42;;;;;;;5.82;5.53;;;;;;;7.03;92.66;102098.53;4383000;32;20088;-68
2021/11/15 03:00:21;;;;;;;3.60;3.50;;;;;;;5.46;92.58;101829.56;4397386;32;20073;-67
2021/11/15 03:02:46;;;;;;;5.68;5.35;;;;;;;7.07;93.24;102106.28;4375702;32;20076;-68
2021/11/15 03:05:12;;;;;;;4.43;4.22;;;;;;;7.06;92.85;102108.94;4362511;32;20223;-67
2021/11/15 03:07:37;;;;;;;6.03;5.68;;;;;;;7.07;92.80;102108.91;4390295;32;20451;-67
2021/11/15 03:10:03;;;;;;;3.70;3.60;;;;;;;7.06;93.70;102103.72;4371146;32;20570;-68
2021/11/15 03:12:32;;;;;;;3.55;3.45;;;;;;;7.02;94.66;102102.91;4379514;32;20073;-68
2021/11/15 03:14:58;;;;;;;4.40;4.20;;;;;;;6.98;95.72;102098.63;4385649;32;20072;-64
2021/11/15 03:17:23;;;;;;;4.62;4.32;;;;;;;6.96;95.97;102098.63;4364133;32;20069;-66
2021/11/15 03:19:48;;;;;;;4.43;4.22;;;;;;;6.93;96.29;102090.84;4378002;32;20195;-67
2021/11/15 03:22:14;;;;;;;3.58;3.47;;;;;;;6.43;96.14;102015.91;4376728;32;20501;-66
2021/11/15 03:24:41;;;;;;;5.18;4.97;;;;;;;6.90;96.35;102090.03;4378821;32;20149;-67
2021/11/15 03:27:06;;;;;;;3.60;3.50;;;;;;;6.89;97.25;102088.28;4392986;32;20125;-66
2021/11/15 03:29:32;;;;;;;4.60;4.40;;;;;;;6.90;97.39;102093.50;4385763;32;20058;-67
2021/11/15 03:31:57;;;;;;;4.20;4.00;;;;;;;6.91;96.48;102083.91;4392765;32;20080;-67
2021/11/15 03:34:23;;;;;;;4.10;3.90;;;;;;;6.97;96.84;102086.44;4368892;32;20077;-67
2021/11/15 03:36:48;;;;;;;4.10;3.90;;;;;;;6.97;95.10;102083.81;4382174;32;20087;-67
2021/11/15 03:39:14;;;;;;;3.60;3.50;;;;;;;6.97;95.82;102091.66;4371567;32;20069;-67
2021/11/15 03:41:40;;;;;;;5.57;5.37;;;;;;;6.97;95.89;102095.13;4384286;32;20061;-67
2021/11/15 03:44:05;;;;;;;4.10;3.90;;;;;;;6.95;96.67;102098.66;4387739;32;20495;-67
2021/11/15 03:46:32;;;;;;;3.67;3.58;;;;;;;5.63;96.56;101874.44;4386591;32;20076;-72
2021/11/15 03:48:58;;;;;;;3.53;3.42;;;;;;;6.91;96.30;102092.59;4365478;32;20062;-67
2021/11/15 03:51:24;;;;;;;4.03;3.83;;;;;;;6.91;97.00;102102.19;4403952;32;20674;-66
2021/11/15 03:53:49;;;;;;;4.80;4.50;;;;;;;6.90;97.13;102100.47;4379828;32;20441;-67
2021/11/15 03:56:17;;;;;;;4.22;3.92;;;;;;;6.90;96.24;102100.47;4369078;32;20151;-66
2021/11/15 03:58:43;;;;;;;4.15;3.78;;;;;;;6.87;96.12;102101.34;4381829;32;20548;-66
2021/11/15 04:01:08;;;;;;;3.90;3.70;;;;;;;6.91;96.21;102104.78;4387506;32;20095;-67
2021/11/15 04:03:35;;;;;;;4.07;3.87;;;;;;;6.91;96.76;102104.78;4382904;32;20417;-67
2021/11/15 04:06:09;;;;;;;3.60;3.50;;;;;;;6.79;97.16;102098.88;4384082;32;20389;-67
2021/11/15 04:08:34;;;;;;;4.53;4.32;;;;;;;6.81;96.92;102095.38;4398013;32;20082;-67
2021/11/15 04:11:00;;;;;;;3.58;3.47;;;;;;;6.76;98.13;102092.84;4374203;32;20093;-66
2021/11/15 04:13:29;;;;;;;4.18;3.87;;;;;;;6.84;98.36;102105.78;4385508;32;20084;-66
2021/11/15 04:15:57;;;;;;;3.97;3.80;;;;;;;6.81;98.90;102106.66;4384835;32;20084;-66
2021/11/15 04:18:23;;;;;;;3.70;3.60;;;;;;;6.78;99.71;102112.78;4375081;32;20543;-66
2021/11/15 04:20:53;;;;;;;4.82;4.62;;;;;;;6.78;100.00;102104.97;4393882;32;20113;-67
2021/11/15 04:23:18;;;;;;;3.60;3.50;;;;;;;6.81;99.51;102108.41;4398447;32;20087;-66
2021/11/15 04:25:44;;;;;;;5.32;5.03;;;;;;;6.77;99.58;102104.97;4382606;32;20609;-66
2021/11/15 04:28:09;;;;;;;3.37;3.28;;;;;;;6.76;100.00;102098.91;4372039;32;20127;-67
2021/11/15 04:30:35;;;;;;;4.32;4.15;;;;;;;6.76;99.99;102096.31;4374387;32;20065;-67
2021/11/15 04:33:01;;;;;;;4.25;3.95;;;;;;;6.74;100.00;102095.47;4385007;32;20094;-66
2021/11/15 04:35:26;;;;;;;3.50;3.40;;;;;;;6.75;100.00;102094.56;4375042;32;20073;-67
2021/11/15 04:37:51;;;;;;;3.95;3.78;;;;;;;6.71;100.00;102099.84;4388508;32;20083;-69
2021/11/15 04:40:17;;;;;;;3.75;3.62;;;;;;;6.72;100.00;102096.38;4384703;32;20900;-66
2021/11/15 04:42:43;;;;;;;3.40;3.30;;;;;;;6.73;100.00;102098.09;4390908;32;20065;-68
2021/11/15 04:45:09;;;;;;;4.37;4.18;;;;;;;6.72;100.00;102089.41;4384849;32;20083;-68
2021/11/15 04:47:34;;;;;;;4.55;4.35;;;;;;;6.73;100.00;102092.88;4400861;32;20088;-68
2021/11/15 04:50:00;;;;;;;3.60;3.50;;;;;;;6.73;100.00;102082.44;4378789;32;20100;-68
2021/11/15 04:52:26;;;;;;;3.62;3.53;;;;;;;6.71;100.00;102082.44;4367088;32;20092;-68
2021/11/15 04:54:51;;;;;;;3.60;3.50;;;;;;;6.71;100.00;102081.59;4383458;32;20137;-68
2021/11/15 04:57:18;;;;;;;3.30;3.20;;;;;;;6.29;100.00;102022.16;4380340;32;20822;-66
2021/11/15 04:59:44;;;;;;;5.05;4.85;;;;;;;6.72;100.00;102093.75;4402462;32;20092;-66
2021/11/15 05:02:10;;;;;;;3.70;3.55;;;;;;;6.71;100.00;102094.63;4386652;32;20079;-65
2021/11/15 05:04:38;;;;;;;4.47;4.28;;;;;;;6.71;99.64;102084.19;4399034;32;20084;-68
2021/11/15 05:07:04;;;;;;;3.60;3.50;;;;;;;6.70;100.00;102088.56;4383114;32;20088;-67
2021/11/15 05:09:29;;;;;;;3.80;3.60;;;;;;;6.71;99.98;102085.06;4371023;32;20113;-67
2021/11/15 05:11:55;;;;;;;3.70;3.60;;;;;;;6.72;99.57;102084.19;4390904;32;20982;-66
2021/11/15 05:14:20;;;;;;;3.60;3.50;;;;;;;6.73;99.77;102087.66;4395259;32;20168;-67
2021/11/15 05:16:47;;;;;;;5.55;5.25;;;;;;;6.71;99.29;102085.06;4383392;32;20301;-67
2021/11/15 05:19:13;;;;;;;3.60;3.50;;;;;;;5.56;100.00;101894.50;4378294;32;20719;-67
2021/11/15 05:21:38;;;;;;;6.18;5.87;;;;;;;6.70;99.21;102077.28;4383385;32;20326;-67
2021/11/15 05:24:04;;;;;;;3.80;3.70;;;;;;;6.70;100.00;102075.53;4381030;32;20162;-67
2021/11/15 05:26:29;;;;;;;4.40;4.20;;;;;;;6.69;99.90;102079.00;4366722;32;20391;-67
2021/11/15 05:28:56;;;;;;;3.40;3.30;;;;;;;6.68;100.00;102079.91;4383357;32;20088;-67
2021/11/15 05:31:21;;;;;;;3.30;3.20;;;;;;;6.68;99.67;102084.25;4367948;32;20135;-67
2021/11/15 05:33:47;;;;;;;5.87;5.57;;;;;;;6.68;99.46;102085.13;4370181;32;20207;-67
2021/11/15 05:36:12;;;;;;;3.60;3.50;;;;;;;6.62;100.00;102064.31;4380753;32;20677;-67
2021/11/15 05:38:37;;;;;;;5.05;4.85;;;;;;;6.69;99.25;102079.00;4396317;32;20153;-67
2021/11/15 05:41:03;;;;;;;3.70;3.60;;;;;;;6.70;99.30;102079.88;4386005;32;20596;-67
2021/11/15 05:43:28;;;;;;;3.90;3.70;;;;;;;6.70;99.68;102078.13;4369825;32;20088;-67
2021/11/15 05:45:54;;;;;;;3.70;3.60;;;;;;;6.70;98.90;102085.94;4378877;32;20096;-67
2021/11/15 05:48:19;;;;;;;3.70;3.50;;;;;;;6.71;99.48;102084.19;4379046;32;20458;-67
2021/11/15 05:50:45;;;;;;;5.15;4.95;;;;;;;6.70;99.79;102082.50;4379745;32;20068;-67
2021/11/15 05:53:10;;;;;;;3.50;3.40;;;;;;;6.71;99.27;102079.84;4366031;32;20115;-67
2021/11/15 05:55:35;;;;;;;4.82;4.62;;;;;;;6.71;99.94;102085.06;4383087;32;20407;-67
2021/11/15 05:58:01;;;;;;;4.15;3.95;;;;;;;6.68;100.00;102077.28;4382917;32;20073;-67
2021/11/15 06:00:28;;;;;;;4.18;3.97;;;;;;;6.67;99.71;102078.16;4367795;32;20064;-67
2021/11/15 06:02:54;;;;;;;3.40;3.30;;;;;;;6.68;100.00;102077.28;4383533;32;20857;-66
2021/11/15 06:05:19;;;;;;;3.80;3.70;;;;;;;6.69;99.73;102078.13;4371790;32;20097;-67
2021/11/15 06:07:45;;;;;;;5.15;4.95;;;;;;;6.69;100.00;102073.78;4385642;32;20089;-67
2021/11/15 06:10:11;;;;;;;4.10;3.90;;;;;;;6.69;100.00;102076.38;4365681;32;20682;-66
2021/11/15 06:12:38;;;;;;;4.60;4.40;;;;;;;6.69;99.96;102078.13;4394654;32;20073;-67
2021/11/15 06:15:04;;;;;;;4.62;4.43;;;;;;;6.67;100.00;102077.31;4380685;32;20089;-67
2021/11/15 06:17:29;;;;;;;4.20;4.00;;;;;;;6.70;99.77;102079.88;4409310;32;20104;-66
2021/11/15 06:19:54;;;;;;;3.40;3.30;;;;;;;6.68;100.00;102087.72;4379760;32;20081;-67
2021/11/15 06:22:20;;;;;;;3.70;3.60;;;;;;;6.67;100.00;102082.50;4365597;32;20077;-66
2021/11/15 06:24:47;;;;;;;4.70;4.50;;;;;;;6.67;100.00;102091.19;4378394;32;20418;-67
2021/11/15 06:27:16;;;;;;;4.00;3.80;;;;;;;6.66;99.87;102083.41;4363951;32;20532;-67
2021/11/15 06:29:42;;;;;;;5.35;5.12;;;;;;;6.61;100.00;102080.84;4381444;32;20075;-68
2021/11/15 06:32:08;;;;;;;3.80;3.70;;;;;;;6.34;100.00;102036.00;4380267;32;20104;-67
2021/11/15 06:34:33;;;;;;;4.25;4.03;;;;;;;6.68;99.79;102090.34;4370040;32;20057;-67
2021/11/15 06:36:59;;;;;;;4.22;4.03;;;;;;;6.64;99.78;102087.78;4383636;32;20396;-67
2021/11/15 06:39:26;;;;;;;3.60;3.50;;;;;;;6.63;100.00;102081.69;4370293;32;20129;-66
2021/11/15 06:41:54;;;;;;;4.95;4.75;;;;;;;6.69;99.44;102096.41;4379941;32;20065;-67
2021/11/15 06:44:22;;;;;;;3.50;3.40;;;;;;;6.70;99.60;102099.00;4400007;32;20125;-67
2021/11/15 06:46:47;;;;;;;3.42;3.33;;;;;;;6.70;97.85;102103.34;4383723;32;20142;-67
2021/11/15 06:49:13;;;;;;;3.80;3.65;;;;;;;6.72;98.21;102102.44;4364917;32;20187;-66
2021/11/15 06:51:38;;;;;;;5.10;4.90;;;;;;;6.74;98.00;102099.81;4379156;32;20074;-67
2021/11/15 06:54:04;;;;;;;3.87;3.72;;;;;;;6.62;97.95;102111.28;4382723;32;20080;-67
2021/11/15 06:56:30;;;;;;;4.00;3.80;;;;;;;6.76;97.62;102104.13;4359982;32;20118;-67
2021/11/15 06:58:56;;;;;;;3.70;3.60;;;;;;;6.48;96.95;102045.41;4377244;32;20162;-66
2021/11/15 07:01:21;;;;;;;3.50;3.40;;;;;;;6.79;96.36;102101.50;4364492;32;20070;-66
2021/11/15 07:03:47;;;;;;;4.97;4.78;;;;;;;6.78;96.72;102111.94;4382358;32;20827;-67
2021/11/15 07:06:13;;;;;;;3.55;3.45;;;;;;;6.77;97.79;102110.19;4367061;32;20192;-67
2021/11/15 07:08:38;;;;;;;5.18;4.97;;;;;;;6.76;97.62;102111.97;4363623;32;20543;-66
2021/11/15 07:11:03;;;;;;;3.42;3.33;;;;;;;6.68;97.21;102116.41;4383686;32;20570;-65
2021/11/15 07:13:29;;;;;;;3.50;3.40;;;;;;;6.69;96.66;102107.69;4373856;32;20139;-74
2021/11/15 07:15:54;;;;;;;3.72;3.62;;;;;;;6.78;97.14;102115.41;4393897;32;20496;-71
2021/11/15 07:18:20;;;;;;;3.70;3.50;;;;;;;6.78;95.69;102102.34;4367985;32;20068;-71
2021/11/15 07:20:46;;;;;;;23.20;6.25;;;;;;;6.78;96.31;102110.19;4383244;32;20074;-72
2021/11/15 07:23:12;;;;;;;3.78;3.67;;;;;;;6.79;95.11;102111.94;4364779;32;20061;-71
2021/11/15 07:25:38;;;;;;;6.15;5.85;;;;;;;6.78;94.63;102104.97;4391952;32;20134;-71
2021/11/15 07:28:03;;;;;;;3.70;3.60;;;;;;;6.73;94.96;102106.75;4384181;32;20100;-73
2021/11/15 07:30:29;;;;;;;3.62;3.53;;;;;;;6.77;94.77;102113.66;4394691;32;20164;-71
2021/11/15 07:32:54;;;;;;;3.60;3.50;;;;;;;6.78;95.04;102107.59;4377381;32;20103;-71
2021/11/15 07:35:22;;;;;;;5.32;3.50;;;;;;;6.77;95.17;102100.63;4370110;32;20216;-71
2021/11/15 07:37:48;;;;;;;5.10;4.90;;;;;;;6.78;93.66;102111.94;4381104;32;20516;-73
2021/11/15 07:40:15;;;;;;;3.65;3.55;;;;;;;6.79;93.76;102113.66;4398647;32;20080;-73
2021/11/15 07:42:40;;;;;;;5.18;4.97;;;;;;;6.79;93.81;102118.88;4383408;32;20083;-72
2021/11/15 07:45:07;;;;;;;4.18;3.97;;;;;;;6.83;93.56;102122.31;4383087;32;20077;-72
2021/11/15 07:47:35;;;;;;;4.28;4.07;;;;;;;6.84;93.47;102124.06;4386239;32;20084;-71
2021/11/15 07:50:00;;;;;;;3.65;3.55;;;;;;;6.84;94.25;102122.28;4378043;32;20776;-73
2021/11/15 07:52:25;;;;;;;3.97;3.78;;;;;;;6.79;94.21;102124.09;4368673;32;20342;-71
2021/11/15 07:54:51;;;;;;;3.40;3.30;;;;;;;6.84;95.14;102135.34;4380615;32;20330;-71
2021/11/15 07:57:16;;;;;;;4.35;4.15;;;;;;;6.83;96.52;102146.66;4389647;32;20080;-69
2021/11/15 07:59:42;;;;;;;5.00;4.80;;;;;;;6.83;95.65;102136.22;4365410;32;20500;-69
2021/11/15 08:02:08;;;;;;;4.00;3.80;;;;;;;6.78;96.09;102138.87;4398204;32;20303;-76
2021/11/15 08:04:34;;;;;;;3.62;3.53;;;;;;;6.73;95.68;102130.25;4365700;32;20088;-76
2021/11/15 08:06:59;;;;;;;4.72;3.95;;;;;;;6.78;95.07;102138.87;4397742;32;20079;-75
2021/11/15 08:09:25;;;;;;;4.05;3.65;;;;;;;6.63;96.00;102113.00;4360960;32;20078;-77
2021/11/15 08:11:52;;;;;;;4.97;4.78;;;;;;;6.09;95.86;102029.38;4366445;32;20081;-76
2021/11/15 08:14:17;;;;;;;3.85;3.70;;;;;;;6.79;96.00;102130.19;4398364;32;20088;-72
2021/11/15 08:16:43;;;;;;;5.03;4.82;;;;;;;6.64;95.29;102124.31;4382687;32;20700;-74
2021/11/15 08:19:08;;;;;;;3.75;3.65;;;;;;;6.72;95.37;102141.59;4379337;32;20100;-74
2021/11/15 08:21:34;;;;;;;4.68;4.43;;;;;;;6.65;95.57;102132.09;4384815;32;20084;-74
2021/11/15 08:24:18;;;;;;;4.55;4.25;;;;;;;6.04;95.76;102041.59;4380093;32;20081;-74
2021/11/15 08:27:02;;;;;;;4.05;3.85;;;;;;;6.66;96.11;102128.63;4372256;32;20069;-73
2021/11/15 08:29:34;;;;;;;3.85;3.67;;;;;;;6.45;95.50;102105.41;4397052;32;20088;-75
2021/11/15 08:32:03;;;;;;;4.03;3.83;;;;;;;6.61;96.02;102119.97;4376909;32;20211;-75
2021/11/15 08:34:29;;;;;;;3.70;3.55;;;;;;;6.64;96.01;102122.56;4401765;32;20091;-74
2021/11/15 08:36:54;;;;;;;4.03;3.83;;;;;;;6.73;95.28;102130.25;4398287;32;20265;-75
2021/11/15 08:39:21;;;;;;;3.50;3.40;;;;;;;6.31;96.58;102058.62;4385201;32;20069;-71
2021/11/15 08:41:49;;;;;;;5.10;4.90;;;;;;;6.71;95.97;102134.63;4380661;32;20069;-71
2021/11/15 08:44:17;;;;;;;4.90;4.62;;;;;;;6.70;95.84;102130.31;4362286;32;20088;-72
2021/11/15 08:46:44;;;;;;;5.65;5.32;;;;;;;6.70;95.48;102130.31;4381923;32;20066;-72
2021/11/15 08:49:10;;;;;;;3.72;3.53;;;;;;;6.69;95.03;102136.38;4380228;32;20760;-71
2021/11/15 08:51:36;;;;;;;4.07;3.92;;;;;;;6.57;95.68;102139.16;4381908;32;20142;-72
2021/11/15 08:54:02;;;;;;;4.15;3.85;;;;;;;6.61;95.26;102127.81;4378419;32;20655;-73
2021/11/15 08:56:27;;;;;;;3.70;3.60;;;;;;;6.70;95.10;102140.75;4383561;32;20100;-74
2021/11/15 08:58:53;;;;;;;4.57;4.37;;;;;;;6.69;96.25;102144.22;4377503;32;20068;-72
2021/11/15 09:01:18;;;;;;;3.50;3.40;;;;;;;6.71;96.40;102132.00;4356056;32;20100;-71
2021/11/15 09:03:45;;;;;;;5.95;5.65;;;;;;;6.70;96.32;102127.69;4385559;32;20061;-70
2021/11/15 09:06:10;;;;;;;3.75;3.65;;;;;;;6.69;96.87;102132.91;4377556;32;20168;-70
2021/11/15 09:08:37;;;;;;;4.72;4.53;;;;;;;6.71;96.04;102126.78;4368013;32;20658;-70
2021/11/15 09:11:03;;;;;;;4.35;4.15;;;;;;;6.73;96.73;102130.25;4378614;32;20141;-70
2021/11/15 09:13:28;;;;;;;3.50;3.40;;;;;;;6.75;96.38;102125.88;4363075;32;20086;-74
2021/11/15 09:15:53;;;;;;;5.70;5.30;;;;;;;6.73;95.39;102132.84;4375036;32;20930;-73
2021/11/15 09:18:19;;;;;;;4.35;4.15;;;;;;;6.79;96.11;102131.91;4368564;32;20072;-72
2021/11/15 09:20:44;;;;;;;5.82;5.53;;;;;;;6.68;95.63;102115.56;4381038;32;20083;-74
2021/11/15 09:23:09;;;;;;;5.43;4.95;;;;;;;6.79;95.37;102144.97;4370644;32;20073;-73
2021/11/15 09:25:35;;;;;;;4.07;3.87;;;;;;;6.77;94.56;102146.72;4380954;32;20634;-74
2021/11/15 09:28:00;;;;;;;4.20;4.00;;;;;;;6.76;95.60;102143.25;4399980;32;20077;-73
2021/11/15 09:30:26;;;;;;;3.58;3.47;;;;;;;6.76;95.48;102151.09;4362892;32;20551;-74
2021/11/15 09:32:52;;;;;;;4.90;4.70;;;;;;;6.55;95.46;102123.50;4388159;32;20702;-73
2021/11/15 09:35:17;;;;;;;3.78;3.60;;;;;;;5.39;95.29;101906.84;4368008;32;20096;-73
2021/11/15 09:37:42;;;;;;;5.62;5.32;;;;;;;6.63;95.26;102099.09;4365040;32;20073;-74
2021/11/15 09:40:08;;;;;;;3.80;3.70;;;;;;;6.80;95.08;102131.03;4382584;32;20108;-73
2021/11/15 09:42:34;;;;;;;4.07;3.92;;;;;;;6.78;94.83;102128.44;4361962;32;20350;-73
2021/11/15 09:45:02;;;;;;;4.07;3.83;;;;;;;6.81;93.78;102124.06;4394418;32;20963;-73
2021/11/15 09:47:27;;;;;;;3.47;3.37;;;;;;;5.70;94.10;101941.22;4363580;32;20131;-74
2021/11/15 09:49:52;;;;;;;5.05;4.85;;;;;;;6.79;94.97;102122.38;4377687;32;20084;-73
2021/11/15 09:52:18;;;;;;;3.62;3.53;;;;;;;6.78;94.39;102118.00;4364158;32;20835;-73
2021/11/15 09:54:44;;;;;;;5.25;5.05;;;;;;;6.79;94.61;102124.97;4374327;32;20088;-74
2021/11/15 09:57:12;;;;;;;3.70;3.50;;;;;;;6.43;94.29;102068.91;4396001;32;20080;-75
2021/11/15 09:59:37;;;;;;;4.62;4.40;;;;;;;6.81;94.64;102143.19;4393540;32;20140;-74
2021/11/15 10:02:03;;;;;;;4.03;3.83;;;;;;;6.61;93.98;102121.72;4361470;32;20143;-74
2021/11/15 10:04:29;;;;;;;4.10;3.80;;;;;;;6.85;94.57;102144.03;4363433;32;20516;-76
2021/11/15 10:06:57;;;;;;;4.00;3.80;;;;;;;6.88;94.31;102136.16;4386803;32;20100;-75
2021/11/15 10:09:29;;;;;;;4.57;4.37;;;;;;;6.54;94.56;102081.84;4382174;32;20085;-72
2021/11/15 10:11:55;;;;;;;4.10;3.90;;;;;;;6.70;94.18;102111.19;4375115;32;20081;-76
2021/11/15 10:14:20;;;;;;;4.25;4.05;;;;;;;6.63;94.60;102093.88;4390532;32;20555;-75
2021/11/15 10:16:55;;;;;;;4.93;4.72;;;;;;;6.47;94.04;102068.00;4395645;32;20571;-71
2021/11/15 10:19:22;;;;;;;3.50;3.40;;;;;;;6.88;93.55;102126.59;4370047;32;20073;-76
2021/11/15 10:22:02;;;;;;;4.75;4.55;;;;;;;6.84;94.03;102131.87;4372542;32;20437;-74
2021/11/15 10:24:39;;;;;;;4.28;4.03;;;;;;;6.68;93.23;102089.47;4376586;32;20064;-74
2021/11/15 10:27:06;;;;;;;4.20;4.00;;;;;;;6.84;94.05;102127.50;4386381;32;20070;-75
2021/11/15 10:29:38;;;;;;;3.62;3.50;;;;;;;6.89;94.30;102124.84;4392243;32;20184;-76
2021/11/15 10:32:07;;;;;;;3.87;3.67;;;;;;;6.87;93.52;102129.22;4394906;32;20123;-74
2021/11/15 10:34:34;;;;;;;4.05;3.83;;;;;;;6.88;93.51;102125.72;4389340;32;20126;-76
2021/11/15 10:37:12;;;;;;;3.50;3.40;;;;;;;6.27;93.60;102021.31;4383017;32;20072;-75
2021/11/15 10:39:50;;;;;;;4.35;4.15;;;;;;;6.93;93.16;102119.53;4366719;32;20562;-76
2021/11/15 10:42:26;;;;;;;4.07;3.87;;;;;;;6.93;93.53;102123.91;4371727;32;20473;-73
2021/11/15 10:45:04;;;;;;;5.18;4.90;;;;;;;5.97;93.06;101952.19;4394133;32;20919;-73
2021/11/15 10:47:45;;;;;;;3.60;3.50;;;;;;;6.54;93.12;102058.34;4393435;32;20140;-73
2021/11/15 10:50:27;;;;;;;3.50;3.40;;;;;;;6.89;92.48;102111.78;4382611;32;20564;-73
2021/11/15 10:53:01;;;;;;;4.28;4.07;;;;;;;6.92;92.49;102110.00;4386657;32;20260;-76
2021/11/15 10:55:31;;;;;;;4.37;4.07;;;;;;;6.95;92.74;102109.94;4391124;32;20061;-74
2021/11/15 10:57:57;;;;;;;4.00;3.80;;;;;;;6.94;93.46;102104.75;4385545;32;20084;-76
2021/11/15 11:00:26;;;;;;;3.87;3.58;;;;;;;6.88;93.29;102107.47;4376358;32;20682;-75
2021/11/15 11:02:55;;;;;;;3.50;3.40;;;;;;;6.78;92.84;102091.91;4368254;32;20089;-73
2021/11/15 11:05:25;;;;;;;4.53;4.25;;;;;;;6.82;92.40;102102.34;4380113;32;20179;-74
2021/11/15 11:08:07;;;;;;;5.37;5.18;;;;;;;6.80;93.44;102094.53;4387944;32;20548;-73
2021/11/15 11:10:41;;;;;;;3.67;3.47;;;;;;;6.67;94.50;102072.94;4394679;32;20433;-76
2021/11/15 11:13:07;;;;;;;4.05;3.85;;;;;;;6.74;93.10;102098.06;4380866;32;20163;-73
2021/11/15 11:15:47;;;;;;;3.80;3.70;;;;;;;6.75;93.82;102099.78;4379780;32;20073;-77
2021/11/15 11:18:34;;;;;;;3.30;3.20;;;;;;;6.76;93.47;102091.09;4369740;32;20183;-73
2021/11/15 11:26:43;;;;;;;5.70;3.90;;;;;;;6.75;93.05;102081.50;4397898;32;20255;-73
2021/11/15 11:29:15;;;;;;;3.58;3.47;;;;;;;6.54;93.85;102042.72;4382101;32;20387;-74
2021/11/15 11:31:42;;;;;;;4.90;4.70;;;;;;;6.61;93.51;102049.53;4384244;32;20527;-74
2021/11/15 11:34:08;;;;;;;4.18;3.97;;;;;;;5.67;93.24;101883.09;4382359;32;20065;-74